sensor_id;sensor_type;location;lat;lon;timestamp;P1;durP1;ratioP1;P2;durP2;ratioP2
69847;SDS011;57143;55.940;37.496;2023-04-19T00:00:46;14.60;;;4.90;;
69847;SDS011;57143;55.940;37.496;2023-04-19T00:03:13;13.27;;;4.97;;
69847;SDS011;57143;55.940;37.496;2023-04-19T00:05:43;11.65;;;4.70;;
69847;SDS011;57143;55.940;37.496;2023-04-19T00:08:11;14.80;;;5.10;;
69847;SDS011;57143;55.940;37.496;2023-04-19T00:10:38;17.30;;;5.43;;
69847;SDS011;57143;55.940;37.496;2023-04-19T00:13:05;11.35;;;5.13;;
69847;SDS011;57143;55.940;37.496;2023-04-19T00:15:32;14.73;;;5.17;;
69847;SDS011;57143;55.940;37.496;2023-04-19T00:18:00;11.55;;;4.90;;
69847;SDS011;57143;55.940;37.496;2023-04-19T00:20:27;11.88;;;5.00;;
69847;SDS011;57143;55.940;37.496;2023-04-19T00:22:55;10.60;;;4.50;;
69847;SDS011;57143;55.940;37.496;2023-04-19T00:25:23;12.13;;;4.70;;
69847;SDS011;57143;55.940;37.496;2023-04-19T00:27:50;11.53;;;4.03;;
69847;SDS011;57143;55.940;37.496;2023-04-19T00:30:18;11.10;;;4.25;;
69847;SDS011;57143;55.940;37.496;2023-04-19T00:32:45;11.20;;;4.70;;
69847;SDS011;57143;55.940;37.496;2023-04-19T00:35:12;10.75;;;4.53;;
69847;SDS011;57143;55.940;37.496;2023-04-19T00:37:40;10.50;;;4.22;;
69847;SDS011;57143;55.940;37.496;2023-04-19T00:40:09;10.63;;;4.63;;
69847;SDS011;57143;55.940;37.496;2023-04-19T00:42:36;9.55;;;3.92;;
69847;SDS011;57143;55.940;37.496;2023-04-19T00:45:04;11.20;;;4.03;;
69847;SDS011;57143;55.940;37.496;2023-04-19T00:47:32;10.85;;;4.50;;
69847;SDS011;57143;55.940;37.496;2023-04-19T00:49:59;11.57;;;4.22;;
69847;SDS011;57143;55.940;37.496;2023-04-19T00:52:29;12.23;;;4.13;;
69847;SDS011;57143;55.940;37.496;2023-04-19T00:54:58;10.65;;;4.00;;
69847;SDS011;57143;55.940;37.496;2023-04-19T00:57:27;10.68;;;3.88;;
69847;SDS011;57143;55.940;37.496;2023-04-19T00:59:55;11.13;;;3.90;;
69847;SDS011;57143;55.940;37.496;2023-04-19T01:02:23;11.50;;;4.28;;
69847;SDS011;57143;55.940;37.496;2023-04-19T01:04:50;11.47;;;4.53;;
69847;SDS011;57143;55.940;37.496;2023-04-19T01:07:17;13.73;;;3.80;;
69847;SDS011;57143;55.940;37.496;2023-04-19T01:09:45;9.82;;;4.20;;
69847;SDS011;57143;55.940;37.496;2023-04-19T01:12:12;8.40;;;3.67;;
69847;SDS011;57143;55.940;37.496;2023-04-19T01:14:41;11.63;;;4.00;;
69847;SDS011;57143;55.940;37.496;2023-04-19T01:17:08;10.07;;;3.83;;
69847;SDS011;57143;55.940;37.496;2023-04-19T01:19:37;12.77;;;3.97;;
69847;SDS011;57143;55.940;37.496;2023-04-19T01:22:05;10.85;;;4.55;;
69847;SDS011;57143;55.940;37.496;2023-04-19T01:24:34;9.10;;;3.92;;
69847;SDS011;57143;55.940;37.496;2023-04-19T01:27:01;11.73;;;4.93;;
69847;SDS011;57143;55.940;37.496;2023-04-19T01:29:28;8.90;;;3.73;;
69847;SDS011;57143;55.940;37.496;2023-04-19T01:31:55;10.63;;;4.28;;
69847;SDS011;57143;55.940;37.496;2023-04-19T01:34:22;12.68;;;4.70;;
69847;SDS011;57143;55.940;37.496;2023-04-19T01:36:50;10.55;;;4.00;;
69847;SDS011;57143;55.940;37.496;2023-04-19T01:39:17;10.65;;;4.78;;
69847;SDS011;57143;55.940;37.496;2023-04-19T01:41:46;10.33;;;4.20;;
69847;SDS011;57143;55.940;37.496;2023-04-19T01:44:13;12.98;;;4.50;;
69847;SDS011;57143;55.940;37.496;2023-04-19T01:46:40;10.75;;;4.45;;
69847;SDS011;57143;55.940;37.496;2023-04-19T01:49:07;9.65;;;4.35;;
69847;SDS011;57143;55.940;37.496;2023-04-19T01:51:35;8.75;;;3.35;;
69847;SDS011;57143;55.940;37.496;2023-04-19T01:54:03;10.80;;;4.40;;
69847;SDS011;57143;55.940;37.496;2023-04-19T01:56:30;9.88;;;3.88;;
69847;SDS011;57143;55.940;37.496;2023-04-19T01:58:59;9.30;;;3.78;;
69847;SDS011;57143;55.940;37.496;2023-04-19T02:01:26;11.23;;;4.28;;
69847;SDS011;57143;55.940;37.496;2023-04-19T02:03:53;11.23;;;4.20;;
69847;SDS011;57143;55.940;37.496;2023-04-19T02:06:20;9.00;;;3.77;;
69847;SDS011;57143;55.940;37.496;2023-04-19T02:08:47;11.52;;;3.90;;
69847;SDS011;57143;55.940;37.496;2023-04-19T02:11:14;9.43;;;3.70;;
69847;SDS011;57143;55.940;37.496;2023-04-19T02:13:42;12.20;;;4.18;;
69847;SDS011;57143;55.940;37.496;2023-04-19T02:16:10;11.10;;;4.10;;
69847;SDS011;57143;55.940;37.496;2023-04-19T02:18:37;9.83;;;3.93;;
69847;SDS011;57143;55.940;37.496;2023-04-19T02:21:06;9.25;;;4.00;;
69847;SDS011;57143;55.940;37.496;2023-04-19T02:23:34;9.50;;;4.38;;
69847;SDS011;57143;55.940;37.496;2023-04-19T02:26:01;9.32;;;4.15;;
69847;SDS011;57143;55.940;37.496;2023-04-19T02:28:29;9.23;;;4.10;;
69847;SDS011;57143;55.940;37.496;2023-04-19T02:30:56;12.00;;;4.43;;
69847;SDS011;57143;55.940;37.496;2023-04-19T02:33:25;11.65;;;3.95;;
69847;SDS011;57143;55.940;37.496;2023-04-19T02:35:53;10.73;;;4.13;;
69847;SDS011;57143;55.940;37.496;2023-04-19T02:38:20;12.10;;;4.05;;
69847;SDS011;57143;55.940;37.496;2023-04-19T02:40:47;10.02;;;4.30;;
69847;SDS011;57143;55.940;37.496;2023-04-19T02:43:15;11.27;;;3.93;;
69847;SDS011;57143;55.940;37.496;2023-04-19T02:45:42;10.50;;;4.15;;
69847;SDS011;57143;55.940;37.496;2023-04-19T02:48:09;9.00;;;3.83;;
69847;SDS011;57143;55.940;37.496;2023-04-19T02:50:38;10.90;;;3.85;;
69847;SDS011;57143;55.940;37.496;2023-04-19T02:53:05;9.55;;;4.03;;
69847;SDS011;57143;55.940;37.496;2023-04-19T02:55:32;9.20;;;3.70;;
69847;SDS011;57143;55.940;37.496;2023-04-19T02:58:00;9.05;;;3.97;;
69847;SDS011;57143;55.940;37.496;2023-04-19T03:00:27;13.13;;;4.13;;
69847;SDS011;57143;55.940;37.496;2023-04-19T03:02:55;12.15;;;3.60;;
69847;SDS011;57143;55.940;37.496;2023-04-19T03:05:22;9.60;;;3.60;;
69847;SDS011;57143;55.940;37.496;2023-04-19T03:07:51;9.77;;;3.60;;
69847;SDS011;57143;55.940;37.496;2023-04-19T03:10:18;10.48;;;3.90;;
69847;SDS011;57143;55.940;37.496;2023-04-19T03:12:45;10.43;;;3.80;;
69847;SDS011;57143;55.940;37.496;2023-04-19T03:15:13;13.60;;;3.92;;
69847;SDS011;57143;55.940;37.496;2023-04-19T03:17:40;9.85;;;3.78;;
69847;SDS011;57143;55.940;37.496;2023-04-19T03:20:07;10.67;;;3.67;;
69847;SDS011;57143;55.940;37.496;2023-04-19T03:22:36;10.95;;;3.65;;
69847;SDS011;57143;55.940;37.496;2023-04-19T03:25:05;6.90;;;3.40;;
69847;SDS011;57143;55.940;37.496;2023-04-19T03:27:33;10.57;;;3.38;;
69847;SDS011;57143;55.940;37.496;2023-04-19T03:30:01;7.78;;;3.42;;
69847;SDS011;57143;55.940;37.496;2023-04-19T03:32:32;9.17;;;4.07;;
69847;SDS011;57143;55.940;37.496;2023-04-19T03:35:00;8.25;;;3.42;;
69847;SDS011;57143;55.940;37.496;2023-04-19T03:37:30;12.55;;;3.20;;
69847;SDS011;57143;55.940;37.496;2023-04-19T03:39:58;9.82;;;3.08;;
69847;SDS011;57143;55.940;37.496;2023-04-19T03:42:26;11.27;;;3.70;;
69847;SDS011;57143;55.940;37.496;2023-04-19T03:44:54;8.90;;;3.30;;
69847;SDS011;57143;55.940;37.496;2023-04-19T03:47:21;10.43;;;3.58;;
69847;SDS011;57143;55.940;37.496;2023-04-19T03:49:48;10.60;;;3.72;;
69847;SDS011;57143;55.940;37.496;2023-04-19T03:52:15;11.35;;;3.03;;
69847;SDS011;57143;55.940;37.496;2023-04-19T03:54:43;9.85;;;3.60;;
69847;SDS011;57143;55.940;37.496;2023-04-19T03:57:10;9.17;;;3.60;;
69847;SDS011;57143;55.940;37.496;2023-04-19T03:59:40;9.95;;;4.43;;
69847;SDS011;57143;55.940;37.496;2023-04-19T04:02:07;9.25;;;3.63;;
69847;SDS011;57143;55.940;37.496;2023-04-19T04:04:34;8.45;;;3.65;;
69847;SDS011;57143;55.940;37.496;2023-04-19T04:07:02;13.77;;;3.90;;
69847;SDS011;57143;55.940;37.496;2023-04-19T04:09:29;8.47;;;3.60;;
69847;SDS011;57143;55.940;37.496;2023-04-19T04:11:56;11.30;;;3.80;;
69847;SDS011;57143;55.940;37.496;2023-04-19T04:14:23;9.30;;;3.67;;
69847;SDS011;57143;55.940;37.496;2023-04-19T04:16:52;14.40;;;3.67;;
69847;SDS011;57143;55.940;37.496;2023-04-19T04:19:19;9.07;;;3.63;;
69847;SDS011;57143;55.940;37.496;2023-04-19T04:21:46;10.70;;;3.47;;
69847;SDS011;57143;55.940;37.496;2023-04-19T04:24:14;11.18;;;3.60;;
69847;SDS011;57143;55.940;37.496;2023-04-19T04:26:46;10.38;;;3.78;;
69847;SDS011;57143;55.940;37.496;2023-04-19T04:29:15;11.10;;;3.58;;
69847;SDS011;57143;55.940;37.496;2023-04-19T04:31:43;8.68;;;3.53;;
69847;SDS011;57143;55.940;37.496;2023-04-19T04:34:12;11.40;;;3.20;;
69847;SDS011;57143;55.940;37.496;2023-04-19T04:36:39;9.05;;;3.60;;
69847;SDS011;57143;55.940;37.496;2023-04-19T04:39:06;13.05;;;3.63;;
69847;SDS011;57143;55.940;37.496;2023-04-19T04:41:36;12.63;;;3.33;;
69847;SDS011;57143;55.940;37.496;2023-04-19T04:44:06;10.73;;;3.97;;
69847;SDS011;57143;55.940;37.496;2023-04-19T04:46:33;7.90;;;3.20;;
69847;SDS011;57143;55.940;37.496;2023-04-19T04:49:01;10.75;;;3.25;;
69847;SDS011;57143;55.940;37.496;2023-04-19T04:51:31;13.68;;;3.70;;
69847;SDS011;57143;55.940;37.496;2023-04-19T04:53:58;11.23;;;3.22;;
69847;SDS011;57143;55.940;37.496;2023-04-19T04:56:25;8.45;;;3.28;;
69847;SDS011;57143;55.940;37.496;2023-04-19T04:58:53;11.73;;;3.53;;
69847;SDS011;57143;55.940;37.496;2023-04-19T05:01:21;12.15;;;3.45;;
69847;SDS011;57143;55.940;37.496;2023-04-19T05:03:48;8.68;;;3.05;;
69847;SDS011;57143;55.940;37.496;2023-04-19T05:06:16;9.02;;;2.90;;
69847;SDS011;57143;55.940;37.496;2023-04-19T05:08:45;13.55;;;3.88;;
69847;SDS011;57143;55.940;37.496;2023-04-19T05:11:12;13.90;;;3.50;;
69847;SDS011;57143;55.940;37.496;2023-04-19T05:13:40;10.60;;;3.45;;
69847;SDS011;57143;55.940;37.496;2023-04-19T05:16:07;14.35;;;4.35;;
69847;SDS011;57143;55.940;37.496;2023-04-19T05:18:34;10.57;;;3.42;;
69847;SDS011;57143;55.940;37.496;2023-04-19T05:21:02;12.13;;;4.13;;
69847;SDS011;57143;55.940;37.496;2023-04-19T05:23:29;10.77;;;3.53;;
69847;SDS011;57143;55.940;37.496;2023-04-19T05:25:57;11.95;;;3.88;;
69847;SDS011;57143;55.940;37.496;2023-04-19T05:28:25;11.65;;;4.00;;
69847;SDS011;57143;55.940;37.496;2023-04-19T05:30:52;11.00;;;3.45;;
69847;SDS011;57143;55.940;37.496;2023-04-19T05:33:19;11.13;;;3.90;;
69847;SDS011;57143;55.940;37.496;2023-04-19T05:35:47;12.43;;;4.20;;
69847;SDS011;57143;55.940;37.496;2023-04-19T05:38:14;14.20;;;4.20;;
69847;SDS011;57143;55.940;37.496;2023-04-19T05:40:43;8.80;;;3.85;;
69847;SDS011;57143;55.940;37.496;2023-04-19T05:43:11;10.13;;;3.60;;
69847;SDS011;57143;55.940;37.496;2023-04-19T05:45:38;10.13;;;3.38;;
69847;SDS011;57143;55.940;37.496;2023-04-19T05:48:06;12.37;;;3.57;;
69847;SDS011;57143;55.940;37.496;2023-04-19T05:50:33;10.35;;;3.33;;
69847;SDS011;57143;55.940;37.496;2023-04-19T05:53:01;11.00;;;3.83;;
69847;SDS011;57143;55.940;37.496;2023-04-19T05:55:28;10.25;;;3.38;;
69847;SDS011;57143;55.940;37.496;2023-04-19T05:57:56;10.48;;;3.28;;
69847;SDS011;57143;55.940;37.496;2023-04-19T06:00:25;11.37;;;3.73;;
69847;SDS011;57143;55.940;37.496;2023-04-19T06:02:53;10.02;;;3.83;;
69847;SDS011;57143;55.940;37.496;2023-04-19T06:05:20;10.60;;;3.45;;
69847;SDS011;57143;55.940;37.496;2023-04-19T06:07:47;9.13;;;4.00;;
69847;SDS011;57143;55.940;37.496;2023-04-19T06:10:14;9.95;;;3.70;;
69847;SDS011;57143;55.940;37.496;2023-04-19T06:12:42;11.97;;;3.73;;
69847;SDS011;57143;55.940;37.496;2023-04-19T06:15:09;14.68;;;3.60;;
69847;SDS011;57143;55.940;37.496;2023-04-19T06:17:38;14.88;;;4.35;;
69847;SDS011;57143;55.940;37.496;2023-04-19T06:20:06;10.90;;;3.75;;
69847;SDS011;57143;55.940;37.496;2023-04-19T06:22:35;8.50;;;3.55;;
69847;SDS011;57143;55.940;37.496;2023-04-19T06:25:08;11.27;;;4.13;;
69847;SDS011;57143;55.940;37.496;2023-04-19T06:27:35;10.55;;;4.10;;
69847;SDS011;57143;55.940;37.496;2023-04-19T06:30:03;15.35;;;4.25;;
69847;SDS011;57143;55.940;37.496;2023-04-19T06:32:31;8.63;;;3.85;;
69847;SDS011;57143;55.940;37.496;2023-04-19T06:34:59;11.65;;;4.10;;
69847;SDS011;57143;55.940;37.496;2023-04-19T06:37:29;13.57;;;3.77;;
69847;SDS011;57143;55.940;37.496;2023-04-19T06:39:58;12.38;;;3.67;;
69847;SDS011;57143;55.940;37.496;2023-04-19T06:42:26;8.93;;;3.88;;
69847;SDS011;57143;55.940;37.496;2023-04-19T06:44:53;7.88;;;3.70;;
69847;SDS011;57143;55.940;37.496;2023-04-19T06:47:21;7.13;;;3.13;;
69847;SDS011;57143;55.940;37.496;2023-04-19T06:49:49;8.23;;;3.13;;
69847;SDS011;57143;55.940;37.496;2023-04-19T06:52:17;8.48;;;3.65;;
69847;SDS011;57143;55.940;37.496;2023-04-19T06:54:47;7.40;;;2.90;;
69847;SDS011;57143;55.940;37.496;2023-04-19T06:57:15;8.13;;;3.58;;
69847;SDS011;57143;55.940;37.496;2023-04-19T06:59:42;8.90;;;3.15;;
69847;SDS011;57143;55.940;37.496;2023-04-19T07:02:10;9.23;;;3.17;;
69847;SDS011;57143;55.940;37.496;2023-04-19T07:04:37;9.63;;;3.55;;
69847;SDS011;57143;55.940;37.496;2023-04-19T07:07:04;9.95;;;3.47;;
69847;SDS011;57143;55.940;37.496;2023-04-19T07:09:33;11.20;;;3.80;;
69847;SDS011;57143;55.940;37.496;2023-04-19T07:12:00;8.57;;;3.42;;
69847;SDS011;57143;55.940;37.496;2023-04-19T07:14:27;11.87;;;3.20;;
69847;SDS011;57143;55.940;37.496;2023-04-19T07:16:55;8.18;;;3.53;;
69847;SDS011;57143;55.940;37.496;2023-04-19T07:19:22;9.05;;;2.85;;
69847;SDS011;57143;55.940;37.496;2023-04-19T07:21:49;9.10;;;3.33;;
69847;SDS011;57143;55.940;37.496;2023-04-19T07:24:17;10.63;;;3.53;;
69847;SDS011;57143;55.940;37.496;2023-04-19T07:26:46;7.32;;;3.00;;
69847;SDS011;57143;55.940;37.496;2023-04-19T07:29:13;9.50;;;3.40;;
69847;SDS011;57143;55.940;37.496;2023-04-19T07:31:40;9.93;;;3.58;;
69847;SDS011;57143;55.940;37.496;2023-04-19T07:34:08;8.38;;;3.60;;
69847;SDS011;57143;55.940;37.496;2023-04-19T07:36:35;10.30;;;3.55;;
69847;SDS011;57143;55.940;37.496;2023-04-19T07:39:03;9.32;;;3.60;;
69847;SDS011;57143;55.940;37.496;2023-04-19T07:41:30;9.23;;;3.23;;
69847;SDS011;57143;55.940;37.496;2023-04-19T07:43:59;8.60;;;2.83;;
69847;SDS011;57143;55.940;37.496;2023-04-19T07:46:26;10.13;;;3.35;;
69847;SDS011;57143;55.940;37.496;2023-04-19T07:48:54;10.20;;;3.42;;
69847;SDS011;57143;55.940;37.496;2023-04-19T07:51:21;6.93;;;2.83;;
69847;SDS011;57143;55.940;37.496;2023-04-19T07:53:49;7.90;;;3.43;;
69847;SDS011;57143;55.940;37.496;2023-04-19T07:56:16;7.82;;;3.13;;
69847;SDS011;57143;55.940;37.496;2023-04-19T07:58:44;7.35;;;3.40;;
69847;SDS011;57143;55.940;37.496;2023-04-19T08:01:13;10.95;;;3.35;;
69847;SDS011;57143;55.940;37.496;2023-04-19T08:03:40;9.68;;;3.22;;
69847;SDS011;57143;55.940;37.496;2023-04-19T08:06:07;8.73;;;3.40;;
69847;SDS011;57143;55.940;37.496;2023-04-19T08:08:35;9.13;;;3.20;;
69847;SDS011;57143;55.940;37.496;2023-04-19T08:11:02;9.90;;;3.50;;
69847;SDS011;57143;55.940;37.496;2023-04-19T08:13:30;8.38;;;3.78;;
69847;SDS011;57143;55.940;37.496;2023-04-19T08:15:57;9.60;;;3.20;;
69847;SDS011;57143;55.940;37.496;2023-04-19T08:18:26;7.67;;;2.73;;
69847;SDS011;57143;55.940;37.496;2023-04-19T08:20:53;9.00;;;3.30;;
69847;SDS011;57143;55.940;37.496;2023-04-19T08:23:21;9.27;;;3.10;;
69847;SDS011;57143;55.940;37.496;2023-04-19T08:25:48;7.53;;;3.47;;
69847;SDS011;57143;55.940;37.496;2023-04-19T08:28:15;7.05;;;2.80;;
69847;SDS011;57143;55.940;37.496;2023-04-19T08:30:42;7.50;;;3.13;;
69847;SDS011;57143;55.940;37.496;2023-04-19T08:33:09;11.02;;;3.78;;
69847;SDS011;57143;55.940;37.496;2023-04-19T08:35:38;9.13;;;3.92;;
69847;SDS011;57143;55.940;37.496;2023-04-19T08:38:06;10.90;;;4.07;;
69847;SDS011;57143;55.940;37.496;2023-04-19T08:40:33;12.23;;;3.90;;
69847;SDS011;57143;55.940;37.496;2023-04-19T08:43:03;9.70;;;3.87;;
69847;SDS011;57143;55.940;37.496;2023-04-19T08:45:31;10.05;;;3.40;;
69847;SDS011;57143;55.940;37.496;2023-04-19T08:48:00;8.73;;;3.60;;
69847;SDS011;57143;55.940;37.496;2023-04-19T08:50:28;8.00;;;3.47;;
69847;SDS011;57143;55.940;37.496;2023-04-19T08:52:58;8.40;;;3.40;;
69847;SDS011;57143;55.940;37.496;2023-04-19T08:55:26;12.40;;;4.87;;
69847;SDS011;57143;55.940;37.496;2023-04-19T08:57:54;10.02;;;3.47;;
69847;SDS011;57143;55.940;37.496;2023-04-19T09:00:22;7.18;;;3.38;;
69847;SDS011;57143;55.940;37.496;2023-04-19T09:02:50;8.73;;;2.80;;
69847;SDS011;57143;55.940;37.496;2023-04-19T09:05:19;11.60;;;3.40;;
69847;SDS011;57143;55.940;37.496;2023-04-19T09:07:46;8.03;;;3.50;;
69847;SDS011;57143;55.940;37.496;2023-04-19T09:10:17;7.85;;;3.55;;
69847;SDS011;57143;55.940;37.496;2023-04-19T09:12:59;10.05;;;4.43;;
69847;SDS011;57143;55.940;37.496;2023-04-19T09:15:36;9.50;;;3.88;;
69847;SDS011;57143;55.940;37.496;2023-04-19T09:18:05;14.90;;;6.32;;
69847;SDS011;57143;55.940;37.496;2023-04-19T09:20:34;8.23;;;3.47;;
69847;SDS011;57143;55.940;37.496;2023-04-19T09:23:02;13.30;;;5.13;;
69847;SDS011;57143;55.940;37.496;2023-04-19T09:25:32;10.77;;;3.78;;
69847;SDS011;57143;55.940;37.496;2023-04-19T09:28:09;11.13;;;4.32;;
69847;SDS011;57143;55.940;37.496;2023-04-19T09:30:37;9.80;;;3.95;;
69847;SDS011;57143;55.940;37.496;2023-04-19T09:33:05;8.87;;;3.93;;
69847;SDS011;57143;55.940;37.496;2023-04-19T09:35:39;8.23;;;3.50;;
69847;SDS011;57143;55.940;37.496;2023-04-19T09:38:08;10.52;;;3.80;;
69847;SDS011;57143;55.940;37.496;2023-04-19T09:40:38;8.68;;;3.75;;
69847;SDS011;57143;55.940;37.496;2023-04-19T09:43:06;9.38;;;3.85;;
69847;SDS011;57143;55.940;37.496;2023-04-19T09:45:40;13.80;;;3.90;;
69847;SDS011;57143;55.940;37.496;2023-04-19T09:48:08;8.88;;;3.70;;
69847;SDS011;57143;55.940;37.496;2023-04-19T09:50:49;7.95;;;3.28;;
69847;SDS011;57143;55.940;37.496;2023-04-19T09:53:17;7.32;;;3.40;;
69847;SDS011;57143;55.940;37.496;2023-04-19T09:55:46;8.18;;;4.05;;
69847;SDS011;57143;55.940;37.496;2023-04-19T09:58:14;10.00;;;3.47;;
69847;SDS011;57143;55.940;37.496;2023-04-19T10:00:42;9.50;;;3.90;;
69847;SDS011;57143;55.940;37.496;2023-04-19T10:03:12;8.13;;;3.90;;
69847;SDS011;57143;55.940;37.496;2023-04-19T10:05:41;7.95;;;3.05;;
69847;SDS011;57143;55.940;37.496;2023-04-19T10:08:10;9.40;;;3.05;;
69847;SDS011;57143;55.940;37.496;2023-04-19T10:10:38;9.47;;;3.30;;
69847;SDS011;57143;55.940;37.496;2023-04-19T10:13:09;7.68;;;3.35;;
69847;SDS011;57143;55.940;37.496;2023-04-19T10:15:38;8.95;;;3.42;;
69847;SDS011;57143;55.940;37.496;2023-04-19T10:18:08;7.93;;;3.35;;
69847;SDS011;57143;55.940;37.496;2023-04-19T10:20:38;8.02;;;3.60;;
69847;SDS011;57143;55.940;37.496;2023-04-19T10:23:13;7.83;;;3.37;;
69847;SDS011;57143;55.940;37.496;2023-04-19T10:25:44;9.25;;;3.30;;
69847;SDS011;57143;55.940;37.496;2023-04-19T10:28:13;7.55;;;3.40;;
69847;SDS011;57143;55.940;37.496;2023-04-19T10:30:51;7.63;;;3.33;;
69847;SDS011;57143;55.940;37.496;2023-04-19T10:33:23;10.13;;;4.05;;
69847;SDS011;57143;55.940;37.496;2023-04-19T10:35:54;9.47;;;3.50;;
69847;SDS011;57143;55.940;37.496;2023-04-19T10:38:34;6.97;;;3.10;;
69847;SDS011;57143;55.940;37.496;2023-04-19T10:41:02;8.45;;;3.17;;
69847;SDS011;57143;55.940;37.496;2023-04-19T10:43:37;8.48;;;3.25;;
69847;SDS011;57143;55.940;37.496;2023-04-19T10:46:05;9.38;;;3.60;;
69847;SDS011;57143;55.940;37.496;2023-04-19T10:48:34;9.67;;;3.20;;
69847;SDS011;57143;55.940;37.496;2023-04-19T10:51:12;7.60;;;3.30;;
69847;SDS011;57143;55.940;37.496;2023-04-19T10:53:51;11.45;;;3.22;;
69847;SDS011;57143;55.940;37.496;2023-04-19T10:56:20;7.55;;;3.00;;
69847;SDS011;57143;55.940;37.496;2023-04-19T10:59:16;7.97;;;3.30;;
69847;SDS011;57143;55.940;37.496;2023-04-19T11:01:55;10.63;;;3.27;;
69847;SDS011;57143;55.940;37.496;2023-04-19T11:07:37;8.50;;;3.38;;
69847;SDS011;57143;55.940;37.496;2023-04-19T11:10:06;7.20;;;3.17;;
69847;SDS011;57143;55.940;37.496;2023-04-19T11:12:35;7.40;;;3.35;;
69847;SDS011;57143;55.940;37.496;2023-04-19T11:15:04;9.77;;;3.47;;
69847;SDS011;57143;55.940;37.496;2023-04-19T11:17:33;9.65;;;2.92;;
69847;SDS011;57143;55.940;37.496;2023-04-19T11:20:03;8.95;;;3.42;;
69847;SDS011;57143;55.940;37.496;2023-04-19T11:22:34;8.23;;;3.03;;
69847;SDS011;57143;55.940;37.496;2023-04-19T11:25:05;7.78;;;3.03;;
69847;SDS011;57143;55.940;37.496;2023-04-19T11:27:37;9.90;;;3.67;;
69847;SDS011;57143;55.940;37.496;2023-04-19T11:30:08;7.10;;;3.40;;
69847;SDS011;57143;55.940;37.496;2023-04-19T11:32:36;9.13;;;3.15;;
69847;SDS011;57143;55.940;37.496;2023-04-19T11:35:09;7.20;;;3.33;;
69847;SDS011;57143;55.940;37.496;2023-04-19T11:37:37;9.60;;;3.40;;
69847;SDS011;57143;55.940;37.496;2023-04-19T11:40:06;8.27;;;3.20;;
69847;SDS011;57143;55.940;37.496;2023-04-19T11:42:36;7.07;;;3.03;;
69847;SDS011;57143;55.940;37.496;2023-04-19T11:45:04;10.80;;;3.30;;
69847;SDS011;57143;55.940;37.496;2023-04-19T11:47:35;9.07;;;3.13;;
69847;SDS011;57143;55.940;37.496;2023-04-19T11:50:32;7.70;;;3.38;;
69847;SDS011;57143;55.940;37.496;2023-04-19T11:53:08;7.40;;;3.30;;
69847;SDS011;57143;55.940;37.496;2023-04-19T11:55:37;9.10;;;3.30;;
69847;SDS011;57143;55.940;37.496;2023-04-19T11:58:07;7.80;;;3.00;;
69847;SDS011;57143;55.940;37.496;2023-04-19T12:00:39;7.80;;;3.20;;
69847;SDS011;57143;55.940;37.496;2023-04-19T12:03:19;8.95;;;3.58;;
69847;SDS011;57143;55.940;37.496;2023-04-19T12:05:51;6.67;;;2.90;;
69847;SDS011;57143;55.940;37.496;2023-04-19T12:08:28;6.90;;;3.22;;
69847;SDS011;57143;55.940;37.496;2023-04-19T12:10:57;9.55;;;3.53;;
69847;SDS011;57143;55.940;37.496;2023-04-19T12:13:25;6.82;;;3.63;;
69847;SDS011;57143;55.940;37.496;2023-04-19T12:15:54;7.55;;;3.22;;
69847;SDS011;57143;55.940;37.496;2023-04-19T12:18:21;8.90;;;3.33;;
69847;SDS011;57143;55.940;37.496;2023-04-19T12:20:51;9.45;;;3.08;;
69847;SDS011;57143;55.940;37.496;2023-04-19T12:23:19;7.07;;;2.90;;
69847;SDS011;57143;55.940;37.496;2023-04-19T12:25:52;7.82;;;2.88;;
69847;SDS011;57143;55.940;37.496;2023-04-19T12:28:19;8.15;;;2.97;;
69847;SDS011;57143;55.940;37.496;2023-04-19T12:30:46;8.63;;;2.70;;
69847;SDS011;57143;55.940;37.496;2023-04-19T12:33:15;8.25;;;3.22;;
69847;SDS011;57143;55.940;37.496;2023-04-19T12:35:42;8.50;;;3.10;;
69847;SDS011;57143;55.940;37.496;2023-04-19T12:38:10;7.07;;;3.03;;
69847;SDS011;57143;55.940;37.496;2023-04-19T12:40:37;6.78;;;2.65;;
69847;SDS011;57143;55.940;37.496;2023-04-19T12:43:04;8.13;;;3.50;;
69847;SDS011;57143;55.940;37.496;2023-04-19T12:45:33;6.80;;;3.35;;
69847;SDS011;57143;55.940;37.496;2023-04-19T12:48:00;7.45;;;3.00;;
69847;SDS011;57143;55.940;37.496;2023-04-19T12:50:29;6.78;;;3.13;;
69847;SDS011;57143;55.940;37.496;2023-04-19T12:52:56;9.27;;;3.85;;
69847;SDS011;57143;55.940;37.496;2023-04-19T12:55:23;7.50;;;3.33;;
69847;SDS011;57143;55.940;37.496;2023-04-19T12:57:50;7.72;;;2.72;;
69847;SDS011;57143;55.940;37.496;2023-04-19T13:00:17;7.68;;;3.42;;
69847;SDS011;57143;55.940;37.496;2023-04-19T13:02:45;8.68;;;2.97;;
69847;SDS011;57143;55.940;37.496;2023-04-19T13:05:13;7.18;;;2.85;;
69847;SDS011;57143;55.940;37.496;2023-04-19T13:07:42;7.13;;;3.00;;
69847;SDS011;57143;55.940;37.496;2023-04-19T13:10:09;7.25;;;2.90;;
69847;SDS011;57143;55.940;37.496;2023-04-19T13:12:36;8.20;;;3.15;;
69847;SDS011;57143;55.940;37.496;2023-04-19T13:15:05;8.32;;;3.05;;
69847;SDS011;57143;55.940;37.496;2023-04-19T13:17:34;7.65;;;3.00;;
69847;SDS011;57143;55.940;37.496;2023-04-19T13:20:02;6.07;;;2.40;;
69847;SDS011;57143;55.940;37.496;2023-04-19T13:22:30;7.10;;;2.53;;
69847;SDS011;57143;55.940;37.496;2023-04-19T13:24:59;10.27;;;3.60;;
69847;SDS011;57143;55.940;37.496;2023-04-19T13:27:28;7.32;;;3.00;;
69847;SDS011;57143;55.940;37.496;2023-04-19T13:29:55;7.05;;;3.08;;
69847;SDS011;57143;55.940;37.496;2023-04-19T13:32:23;7.33;;;2.90;;
69847;SDS011;57143;55.940;37.496;2023-04-19T13:34:50;6.53;;;2.63;;
69847;SDS011;57143;55.940;37.496;2023-04-19T13:37:17;9.10;;;2.90;;
69847;SDS011;57143;55.940;37.496;2023-04-19T13:39:45;6.68;;;2.65;;
69847;SDS011;57143;55.940;37.496;2023-04-19T13:42:14;7.13;;;2.75;;
69847;SDS011;57143;55.940;37.496;2023-04-19T13:44:48;8.43;;;2.90;;
69847;SDS011;57143;55.940;37.496;2023-04-19T13:47:15;8.98;;;3.03;;
69847;SDS011;57143;55.940;37.496;2023-04-19T13:49:42;6.85;;;2.80;;
69847;SDS011;57143;55.940;37.496;2023-04-19T13:52:10;6.53;;;2.70;;
69847;SDS011;57143;55.940;37.496;2023-04-19T13:54:37;8.35;;;2.90;;
69847;SDS011;57143;55.940;37.496;2023-04-19T13:57:04;7.80;;;2.73;;
69847;SDS011;57143;55.940;37.496;2023-04-19T13:59:33;7.75;;;3.30;;
69847;SDS011;57143;55.940;37.496;2023-04-19T14:02:01;10.63;;;3.45;;
69847;SDS011;57143;55.940;37.496;2023-04-19T14:04:29;7.75;;;2.60;;
69847;SDS011;57143;55.940;37.496;2023-04-19T14:06:56;9.00;;;2.63;;
69847;SDS011;57143;55.940;37.496;2023-04-19T14:09:23;8.07;;;2.50;;
69847;SDS011;57143;55.940;37.496;2023-04-19T14:11:50;6.55;;;2.85;;
69847;SDS011;57143;55.940;37.496;2023-04-19T14:14:18;7.07;;;2.58;;
69847;SDS011;57143;55.940;37.496;2023-04-19T14:16:46;16.55;;;3.00;;
69847;SDS011;57143;55.940;37.496;2023-04-19T14:19:14;6.50;;;2.50;;
69847;SDS011;57143;55.940;37.496;2023-04-19T14:21:41;7.33;;;2.77;;
69847;SDS011;57143;55.940;37.496;2023-04-19T14:24:08;6.45;;;2.55;;
69847;SDS011;57143;55.940;37.496;2023-04-19T14:26:36;10.10;;;4.03;;
69847;SDS011;57143;55.940;37.496;2023-04-19T14:29:03;6.70;;;2.70;;
69847;SDS011;57143;55.940;37.496;2023-04-19T14:31:31;9.45;;;3.10;;
69847;SDS011;57143;55.940;37.496;2023-04-19T14:34:00;8.97;;;2.80;;
69847;SDS011;57143;55.940;37.496;2023-04-19T14:36:27;9.20;;;2.38;;
69847;SDS011;57143;55.940;37.496;2023-04-19T14:38:54;9.65;;;2.40;;